createdAt,value
2023-03-22T00:01:24.812Z,99825.69
2023-03-22T00:03:52.488Z,99821.25
2023-03-22T00:06:19.479Z,99815.16
2023-03-22T00:08:50.766Z,99810.75
2023-03-22T00:11:19.041Z,99808.13
2023-03-22T00:13:47.085Z,99798.50
2023-03-22T00:16:14.799Z,99797.59
2023-03-22T00:18:41.786Z,99795.84
2023-03-22T00:21:13.446Z,99787.97
2023-03-22T00:23:40.904Z,99780.97
2023-03-22T00:26:08.934Z,99784.47
2023-03-22T00:28:36.212Z,99777.47
2023-03-22T00:31:04.695Z,99777.47
2023-03-22T00:33:32.386Z,99781.84
2023-03-22T00:36:02.136Z,99772.22
2023-03-22T00:38:43.741Z,99778.34
2023-03-22T00:41:18.011Z,99777.44
2023-03-22T00:43:45.730Z,99768.75
2023-03-22T00:46:13.373Z,99768.72
2023-03-22T00:48:40.625Z,99765.22
2023-03-22T00:51:08.527Z,99761.72
2023-03-22T00:53:36.638Z,99760.84
2023-03-22T00:56:05.102Z,99761.75
2023-03-22T00:58:32.085Z,99744.25
2023-03-22T01:00:58.640Z,99741.63
2023-03-22T01:05:57.019Z,99756.50
2023-03-22T01:08:25.628Z,99749.50
2023-03-22T01:10:52.328Z,99750.34
2023-03-22T01:13:19.110Z,99742.50
2023-03-22T01:15:47.936Z,99746.88
2023-03-22T01:18:14.536Z,99744.25
2023-03-22T01:20:41.377Z,99747.75
2023-03-22T01:23:08.046Z,99738.13
2023-03-22T01:25:34.714Z,99733.78
2023-03-22T01:28:02.782Z,99739.88
2023-03-22T01:30:30.340Z,99730.28
2023-03-22T01:32:57.083Z,99726.78
2023-03-22T01:35:23.765Z,99722.41
2023-03-22T01:37:50.342Z,99719.78
2023-03-22T01:40:17.308Z,99723.31
2023-03-22T01:42:43.811Z,99725.03
2023-03-22T01:45:18.985Z,99718.91
2023-03-22T01:47:57.436Z,99718.91
2023-03-22T01:50:25.902Z,99711.06
2023-03-22T01:52:54.723Z,99711.94
2023-03-22T01:55:22.895Z,99713.66
2023-03-22T01:57:50.724Z,99707.53
2023-03-22T02:00:18.997Z,99704.91
2023-03-22T02:02:49.428Z,99699.66
2023-03-22T02:05:17.354Z,99697.00
2023-03-22T02:07:44.221Z,99703.13
2023-03-22T02:10:21.370Z,99697.03
2023-03-22T02:13:20.245Z,99702.25
2023-03-22T02:16:28.447Z,99702.25
2023-03-22T02:18:57.860Z,99699.59
2023-03-22T02:21:45.282Z,99709.22
2023-03-22T02:24:43.910Z,99702.22
2023-03-22T02:27:25.971Z,99692.59
2023-03-22T02:30:04.532Z,99700.44
2023-03-22T02:32:46.134Z,99696.97
2023-03-22T02:35:33.602Z,99697.81
2023-03-22T02:38:17.228Z,99696.94
2023-03-22T02:41:08.236Z,99696.06
2023-03-22T02:44:00.294Z,99688.22
2023-03-22T02:46:38.553Z,99689.94
2023-03-22T02:49:19.580Z,99690.84
2023-03-22T02:51:53.112Z,99682.97
2023-03-22T02:54:28.900Z,99686.47
2023-03-22T02:57:03.178Z,99681.22
2023-03-22T02:59:33.557Z,99682.97
2023-03-22T03:02:03.777Z,99685.59
2023-03-22T03:04:35.545Z,99689.09
2023-03-22T03:07:08.032Z,99686.47
2023-03-22T03:09:36.743Z,99690.84
2023-03-22T03:12:09.588Z,99695.22
2023-03-22T03:14:36.054Z,99693.47
2023-03-22T03:17:20.422Z,99696.94
2023-03-22T03:20:07.960Z,99703.94
2023-03-22T03:22:49.901Z,99714.44
2023-03-22T03:25:57.932Z,99708.31
2023-03-22T03:28:38.540Z,99711.84
2023-03-22T03:31:26.348Z,99711.84
2023-03-22T03:34:30.002Z,99718.81
2023-03-22T03:37:05.805Z,99719.69
2023-03-22T03:39:35.560Z,99723.19
2023-03-22T03:42:04.887Z,99724.06
2023-03-22T03:44:32.814Z,99727.56
2023-03-22T03:47:00.009Z,99726.69
2023-03-22T03:49:27.362Z,99721.44
2023-03-22T03:51:55.744Z,99724.94
2023-03-22T03:54:23.575Z,99730.19
2023-03-22T03:56:50.984Z,99731.03
2023-03-22T03:59:18.812Z,99741.56
2023-03-22T04:01:52.946Z,99726.69
2023-03-22T04:04:28.344Z,99738.94
2023-03-22T04:06:59.566Z,99743.28
2023-03-22T04:09:28.236Z,99739.81
2023-03-22T04:11:55.784Z,99733.69
2023-03-22T04:14:23.289Z,99727.59
2023-03-22T04:16:50.484Z,99723.22
2023-03-22T04:19:17.332Z,99719.69
2023-03-22T04:21:44.024Z,99712.69
2023-03-22T04:24:10.609Z,99708.28
2023-03-22T04:26:37.138Z,99703.03
2023-03-22T04:29:04.264Z,99713.50
2023-03-22T04:31:32.474Z,99709.13
2023-03-22T04:34:00.499Z,99710.00
2023-03-22T04:36:31.209Z,99718.69
2023-03-22T04:41:30.383Z,99702.97
2023-03-22T04:43:57.742Z,99707.34
2023-03-22T04:46:24.581Z,99700.38
2023-03-22T04:48:51.110Z,99703.84
2023-03-22T04:51:17.653Z,99694.25
2023-03-22T04:53:44.228Z,99693.34
2023-03-22T04:56:12.898Z,99689.84
2023-03-22T04:58:40.947Z,99685.47
2023-03-22T05:01:08.827Z,99681.94
2023-03-22T05:03:35.413Z,99684.56
2023-03-22T05:06:03.990Z,99685.41
2023-03-22T05:08:32.342Z,99682.81
2023-03-22T05:11:04.454Z,99681.94
2023-03-22T05:13:31.682Z,99689.78
2023-03-22T05:15:58.249Z,99687.19
2023-03-22T05:18:26.349Z,99688.94
2023-03-22T05:20:56.054Z,99682.84
2023-03-22T05:23:23.176Z,99680.25
2023-03-22T05:25:51.597Z,99693.31
2023-03-22T05:28:21.439Z,99692.44
2023-03-22T05:30:52.109Z,99694.22
2023-03-22T05:33:24.460Z,99698.59
2023-03-22T05:35:51.962Z,99701.19
2023-03-22T05:38:18.530Z,99695.97
2023-03-22T05:40:45.518Z,99706.50
2023-03-22T05:43:12.590Z,99703.00
2023-03-22T05:45:39.216Z,99694.28
2023-03-22T05:48:06.153Z,99698.66
2023-03-22T05:50:32.818Z,99696.06
2023-03-22T05:52:59.318Z,99698.69
2023-03-22T05:55:26.436Z,99691.75
2023-03-22T05:57:54.813Z,99692.66
2023-03-22T06:00:21.887Z,99686.56
2023-03-22T06:02:49.893Z,99684.81
2023-03-22T06:05:17.626Z,99683.06
2023-03-22T06:07:44.820Z,99691.81
2023-03-22T06:10:13.957Z,99685.69
2023-03-22T06:12:40.920Z,99686.59
2023-03-22T06:15:08.540Z,99695.31
2023-03-22T06:17:35.110Z,99690.09
2023-03-22T06:20:01.637Z,99699.75
2023-03-22T06:22:30.621Z,99703.25
2023-03-22T06:24:57.106Z,99703.25
2023-03-22T06:27:23.659Z,99693.59
2023-03-22T06:29:51.107Z,99697.09
2023-03-22T06:32:17.988Z,99696.19
2023-03-22T06:34:44.643Z,99699.59
2023-03-22T06:37:11.130Z,99696.00
2023-03-22T06:39:37.649Z,99697.66
2023-03-22T06:42:04.275Z,99705.53
2023-03-22T06:44:30.864Z,99700.19
2023-03-22T06:46:57.393Z,99705.59
2023-03-22T06:49:24.197Z,99709.81
2023-03-22T06:51:50.715Z,99717.16
2023-03-22T06:54:17.230Z,99715.78
2023-03-22T06:56:43.782Z,99734.03
2023-03-22T06:59:10.564Z,99732.16
2023-03-22T07:01:37.195Z,99730.97
2023-03-22T07:04:04.136Z,99730.75
2023-03-22T07:06:32.750Z,99726.72
2023-03-22T07:08:59.703Z,99733.44
2023-03-22T07:11:26.570Z,99727.00
2023-03-22T07:13:54.142Z,99721.91
2023-03-22T07:16:21.588Z,99724.28
2023-03-22T07:18:48.660Z,99735.75
2023-03-22T07:21:15.476Z,99728.06
2023-03-22T07:23:42.048Z,99734.03
2023-03-22T07:26:08.700Z,99728.69
2023-03-22T07:28:35.561Z,99722.06
2023-03-22T07:31:02.987Z,99718.19
2023-03-22T07:33:29.716Z,99719.25
2023-03-22T07:35:56.689Z,99715.75
2023-03-22T07:38:23.261Z,99708.84
2023-03-22T07:40:54.744Z,99710.97
2023-03-22T07:43:22.558Z,99712.56
2023-03-22T07:45:50.559Z,99708.41
2023-03-22T07:48:18.383Z,99708.81
2023-03-22T07:50:45.662Z,99712.78
2023-03-22T07:53:12.456Z,99711.53
2023-03-22T07:55:39.687Z,99715.25
2023-03-22T07:58:06.286Z,99716.88
2023-03-22T08:00:32.960Z,99714.88
2023-03-22T08:05:31.815Z,99717.44
2023-03-22T08:07:58.314Z,99709.56
2023-03-22T08:10:24.814Z,99710.84
2023-03-22T08:12:51.409Z,99722.16
2023-03-22T08:15:17.998Z,99718.81
2023-03-22T08:17:44.698Z,99711.69
2023-03-22T08:20:12.935Z,99714.91
2023-03-22T08:22:39.604Z,99713.94
2023-03-22T08:25:07.232Z,99716.34
2023-03-22T08:27:33.756Z,99708.84
2023-03-22T08:30:00.975Z,99712.66
2023-03-22T08:32:27.546Z,99716.03
2023-03-22T08:34:54.091Z,99712.75
2023-03-22T08:37:20.752Z,99712.03
2023-03-22T08:39:47.530Z,99717.47
2023-03-22T08:42:14.032Z,99706.13
2023-03-22T08:44:40.689Z,99705.53
2023-03-22T08:47:07.357Z,99701.00
2023-03-22T08:49:33.978Z,99706.16
2023-03-22T08:52:00.573Z,99700.69
2023-03-22T08:54:33.650Z,99704.94
2023-03-22T08:57:00.804Z,99695.69
2023-03-22T08:59:27.911Z,99703.69
2023-03-22T09:01:54.460Z,99696.13
2023-03-22T09:04:21.031Z,99694.03
2023-03-22T09:06:47.665Z,99688.28
2023-03-22T09:09:14.772Z,99694.38
2023-03-22T09:11:42.857Z,99695.16
2023-03-22T09:14:10.246Z,99695.31
2023-03-22T09:16:37.096Z,99692.53
2023-03-22T09:19:03.816Z,99692.63
2023-03-22T09:21:34.658Z,99683.66
2023-03-22T09:24:01.338Z,99683.41
2023-03-22T09:26:28.062Z,99693.38
2023-03-22T09:28:54.757Z,99681.00
2023-03-22T09:31:21.373Z,99673.72
2023-03-22T09:33:47.909Z,99681.44
2023-03-22T09:36:14.452Z,99683.88
2023-03-22T09:38:42.170Z,99675.53
2023-03-22T09:41:21.129Z,99672.59
2023-03-22T09:43:53.617Z,99678.41
2023-03-22T09:46:30.602Z,99673.75
2023-03-22T09:49:00.045Z,99678.47
2023-03-22T09:51:43.799Z,99670.59
2023-03-22T09:54:21.432Z,99665.34
2023-03-22T09:56:58.817Z,99666.91
2023-03-22T09:59:29.988Z,99661.28
2023-03-22T10:02:18.939Z,99658.53
2023-03-22T10:05:34.808Z,99650.09
2023-03-22T10:08:18.558Z,99653.16
2023-03-22T10:10:45.527Z,99651.16
2023-03-22T10:13:34.199Z,99651.00
2023-03-22T10:16:05.044Z,99644.75
2023-03-22T10:18:52.266Z,99652.72
2023-03-22T10:21:20.192Z,99645.63
2023-03-22T10:23:55.969Z,99650.97
2023-03-22T10:26:31.980Z,99648.81
2023-03-22T10:29:04.636Z,99654.06
2023-03-22T10:31:32.342Z,99652.34
2023-03-22T10:34:02.155Z,99653.00
2023-03-22T10:36:31.557Z,99650.25
2023-03-22T10:39:05.226Z,99652.75
2023-03-22T10:41:33.695Z,99659.03
2023-03-22T10:44:04.618Z,99660.41
2023-03-22T10:46:38.637Z,99653.53
2023-03-22T10:49:07.273Z,99651.03
2023-03-22T10:51:48.727Z,99646.78
2023-03-22T10:54:17.796Z,99649.16
2023-03-22T10:56:45.118Z,99642.97
2023-03-22T10:59:49.851Z,99638.84
2023-03-22T11:02:32.172Z,99639.31
2023-03-22T11:05:01.655Z,99644.69
2023-03-22T11:07:33.318Z,99641.50
2023-03-22T11:10:08.938Z,99635.41
2023-03-22T11:12:40.019Z,99623.53
2023-03-22T11:15:07.554Z,99619.38
2023-03-22T11:17:37.686Z,99624.81
2023-03-22T11:20:07.826Z,99615.03
2023-03-22T11:22:42.696Z,99617.66
2023-03-22T11:25:29.403Z,99615.59
2023-03-22T11:28:04.823Z,99604.63
2023-03-22T11:30:33.080Z,99598.22
2023-03-22T11:33:15.522Z,99600.19
2023-03-22T11:35:45.739Z,99588.69
2023-03-22T11:38:47.250Z,99581.38
2023-03-22T11:41:27.093Z,99587.78
2023-03-22T11:43:56.882Z,99580.69
2023-03-22T11:46:24.456Z,99573.16
2023-03-22T11:48:53.104Z,99577.28
2023-03-22T11:51:29.888Z,99568.91
2023-03-22T11:54:14.118Z,99565.00
2023-03-22T11:56:47.200Z,99559.03
2023-03-22T11:59:16.897Z,99552.72
2023-03-22T12:01:51.641Z,99545.13
2023-03-22T12:04:24.446Z,99551.25
2023-03-22T12:06:53.941Z,99551.44
2023-03-22T12:09:36.547Z,99548.66
2023-03-22T12:12:05.734Z,99543.56
2023-03-22T12:15:09.532Z,99548.13
2023-03-22T12:17:42.460Z,99547.56
2023-03-22T12:20:48.520Z,99544.41
2023-03-22T12:23:18.429Z,99542.34
2023-03-22T12:25:51.684Z,99535.63
2023-03-22T12:28:22.448Z,99529.00
2023-03-22T12:30:53.295Z,99532.53
2023-03-22T12:33:27.657Z,99532.47
2023-03-22T12:35:58.655Z,99528.91
2023-03-22T12:38:34.093Z,99522.66
2023-03-22T12:41:04.928Z,99515.56
2023-03-22T12:43:43.173Z,99528.78
2023-03-22T12:46:18.385Z,99530.22
2023-03-22T12:48:56.081Z,99515.59
2023-03-22T12:51:22.805Z,99512.13
2023-03-22T12:53:53.191Z,99509.13
2023-03-22T12:56:23.299Z,99511.53
2023-03-22T12:58:52.529Z,99502.34
2023-03-22T13:01:33.528Z,99496.53
2023-03-22T13:04:00.592Z,99501.03
2023-03-22T13:06:34.851Z,99501.41
2023-03-22T13:09:34.892Z,99500.16
2023-03-22T13:12:16.940Z,99501.09
2023-03-22T13:14:52.490Z,99491.44
2023-03-22T13:17:25.516Z,99495.41
2023-03-22T13:20:01.188Z,99498.09
2023-03-22T13:22:49.180Z,99488.47
2023-03-22T13:25:23.748Z,99490.72
2023-03-22T13:27:54.636Z,99492.06
2023-03-22T13:30:21.926Z,99479.47
2023-03-22T13:32:54.580Z,99485.44
2023-03-22T13:35:35.977Z,99487.38
2023-03-22T13:38:08.839Z,99485.53
2023-03-22T13:40:50.764Z,99484.94
2023-03-22T13:43:17.182Z,99482.53
2023-03-22T13:46:14.288Z,99480.34
2023-03-22T13:48:52.721Z,99473.69
2023-03-22T13:51:25.809Z,99472.84
2023-03-22T13:54:13.461Z,99473.50
2023-03-22T13:56:43.181Z,99471.13
2023-03-22T13:59:33.852Z,99466.66
2023-03-22T14:02:16.386Z,99475.47
2023-03-22T14:04:48.880Z,99464.84
2023-03-22T14:07:25.871Z,99472.69
2023-03-22T14:09:57.415Z,99466.00
2023-03-22T14:12:33.495Z,99465.28
2023-03-22T14:15:04.688Z,99459.31
2023-03-22T14:17:56.199Z,99458.75
2023-03-22T14:20:27.070Z,99455.59
2023-03-22T14:54:22.117Z,99437.28
2023-03-22T14:56:49.874Z,99428.19
2023-03-22T14:59:19.451Z,99428.06
2023-03-22T15:01:54.153Z,99424.72
2023-03-22T15:04:22.317Z,99421.72
2023-03-22T15:06:57.550Z,99423.81
2023-03-22T15:09:25.284Z,99412.09
2023-03-22T15:11:59.133Z,99408.09
2023-03-22T15:14:26.553Z,99400.72
2023-03-22T15:16:53.840Z,99396.84
2023-03-22T15:19:23.264Z,99402.28
2023-03-22T15:22:04.492Z,99403.81
2023-03-22T15:24:38.194Z,99405.03
2023-03-22T15:27:10.245Z,99405.13
2023-03-22T15:29:36.963Z,99398.22
2023-03-22T15:32:04.500Z,99402.41
2023-03-22T15:34:33.300Z,99396.28
2023-03-22T15:37:01.560Z,99392.34
2023-03-22T15:39:40.394Z,99390.91
2023-03-22T15:42:25.521Z,99385.56
2023-03-22T15:45:01.950Z,99379.50
2023-03-22T15:47:43.025Z,99389.31
2023-03-22T15:50:09.861Z,99386.56
2023-03-22T15:52:38.255Z,99384.19
2023-03-22T15:55:17.832Z,99379.59
2023-03-22T15:57:55.457Z,99372.97
2023-03-22T16:00:33.714Z,99364.25
2023-03-22T16:03:06.497Z,99381.28
2023-03-22T16:05:35.731Z,99373.47
2023-03-22T16:08:04.874Z,99367.50
2023-03-22T16:10:33.614Z,99365.38
2023-03-22T16:13:01.157Z,99359.59
2023-03-22T16:15:30.469Z,99366.13
2023-03-22T16:17:58.332Z,99357.56
2023-03-22T16:20:32.772Z,99359.47
2023-03-22T16:23:01.849Z,99362.41
2023-03-22T16:25:31.430Z,99364.44
2023-03-22T16:27:58.055Z,99354.91
2023-03-22T16:30:24.649Z,99355.66
2023-03-22T16:32:51.320Z,99361.03
2023-03-22T16:35:23.039Z,99361.19
2023-03-22T16:37:50.449Z,99364.91
2023-03-22T16:40:22.909Z,99364.28
2023-03-22T16:42:49.884Z,99370.44
2023-03-22T16:45:28.017Z,99367.09
2023-03-22T16:47:55.651Z,99369.97
2023-03-22T16:50:24.047Z,99366.50
2023-03-22T16:52:53.662Z,99369.50
2023-03-22T16:55:23.765Z,99371.31
2023-03-22T16:57:51.096Z,99378.84
2023-03-22T17:00:20.214Z,99371.97
2023-03-22T17:02:49.352Z,99371.91
2023-03-22T17:05:17.714Z,99368.44
2023-03-22T17:07:44.300Z,99385.28
2023-03-22T17:10:11.861Z,99371.47
2023-03-22T17:12:39.310Z,99381.66
2023-03-22T17:15:24.425Z,99371.81
2023-03-22T17:17:51.030Z,99372.38
2023-03-22T17:20:21.546Z,99372.00
2023-03-22T17:22:49.152Z,99370.75
2023-03-22T17:25:23.134Z,99373.63
2023-03-22T17:27:50.455Z,99370.44
2023-03-22T17:30:17.481Z,99369.72
2023-03-22T17:32:57.850Z,99363.63
2023-03-22T17:35:30.896Z,99365.56
2023-03-22T17:37:59.158Z,99367.38
2023-03-22T17:40:33.160Z,99369.03
2023-03-22T17:43:06.922Z,99360.19
2023-03-22T17:46:00.991Z,99362.88
2023-03-22T17:48:22.727Z,99355.84
2023-03-22T17:50:50.183Z,99357.66
2023-03-22T17:53:30.195Z,99354.28
2023-03-22T17:58:41.812Z,99362.50
2023-03-22T18:01:11.672Z,99364.19
2023-03-22T18:03:38.741Z,99360.06
2023-03-22T18:06:05.641Z,99361.91
2023-03-22T18:08:32.582Z,99361.88
2023-03-22T18:10:59.225Z,99357.56
2023-03-22T18:13:26.115Z,99361.25
2023-03-22T18:15:52.779Z,99357.75
2023-03-22T18:18:19.372Z,99357.88
2023-03-22T18:20:57.339Z,99356.31
2023-03-22T18:23:24.614Z,99353.63
2023-03-22T18:25:58.129Z,99351.69
2023-03-22T18:28:24.757Z,99353.56
2023-03-22T18:30:53.857Z,99351.06
2023-03-22T18:33:20.564Z,99348.63
2023-03-22T18:35:56.369Z,99357.50
2023-03-22T18:39:03.006Z,99354.28
2023-03-22T18:41:34.564Z,99350.06
2023-03-22T18:43:58.776Z,99347.56
2023-03-22T18:46:25.685Z,99354.81
2023-03-22T18:48:52.305Z,99345.25
2023-03-22T18:51:21.736Z,99345.41
2023-03-22T18:53:48.362Z,99359.59
2023-03-22T18:58:42.043Z,99359.81
2023-03-22T19:01:08.716Z,99356.38
2023-03-22T19:03:35.919Z,99355.63
2023-03-22T19:06:04.695Z,99354.88
2023-03-22T19:08:31.341Z,99350.56
2023-03-22T19:10:58.085Z,99361.28
2023-03-22T19:13:24.726Z,99352.63
2023-03-22T19:15:51.801Z,99356.25
2023-03-22T19:18:18.784Z,99352.78
2023-03-22T19:23:16.042Z,99347.69
2023-03-22T19:25:42.997Z,99352.28
2023-03-22T19:28:09.846Z,99354.03
2023-03-22T19:30:36.512Z,99354.13
2023-03-22T19:35:35.625Z,99354.44
2023-03-22T19:38:02.392Z,99354.47
2023-03-22T19:42:58.634Z,99356.34
2023-03-22T19:45:25.864Z,99363.53
2023-03-22T19:48:02.077Z,99360.97
2023-03-22T19:50:30.689Z,99360.97
2023-03-22T19:52:57.972Z,99365.50
2023-03-22T19:55:25.130Z,99353.28
2023-03-22T19:57:51.752Z,99353.34
2023-03-22T20:00:44.448Z,99359.66
2023-03-22T20:03:05.686Z,99366.03
2023-03-22T20:05:35.000Z,99359.09
2023-03-22T20:08:07.895Z,99358.50
2023-03-22T20:10:36.622Z,99362.25
2023-03-22T20:13:03.652Z,99365.91
2023-03-22T20:15:30.436Z,99370.34
2023-03-22T20:17:57.058Z,99359.06
2023-03-22T20:20:25.272Z,99364.41
2023-03-22T20:22:53.826Z,99360.91
2023-03-22T20:25:21.802Z,99363.41
2023-03-22T20:27:49.171Z,99359.00
2023-03-22T20:30:17.701Z,99359.88
2023-03-22T20:32:45.252Z,99359.97
2023-03-22T20:35:12.617Z,99350.19
2023-03-22T20:37:39.573Z,99353.81
2023-03-22T20:40:07.170Z,99357.31
2023-03-22T20:42:34.515Z,99353.81
2023-03-22T20:45:02.114Z,99359.22
2023-03-22T20:47:31.196Z,99354.00
2023-03-22T20:49:58.534Z,99359.38
2023-03-22T20:52:26.593Z,99356.78
2023-03-22T20:54:53.171Z,99357.69
2023-03-22T20:57:20.177Z,99352.66
2023-03-22T20:59:47.073Z,99353.72
2023-03-22T21:02:13.779Z,99349.47
2023-03-22T21:04:40.670Z,99344.97
2023-03-22T21:07:07.726Z,99342.22
2023-03-22T21:09:34.346Z,99349.63
2023-03-22T21:12:01.033Z,99348.47
2023-03-22T21:14:27.922Z,99349.88
2023-03-22T21:16:54.726Z,99353.16
2023-03-22T21:19:21.766Z,99350.69
2023-03-22T21:21:51.550Z,99355.88
2023-03-22T21:24:18.303Z,99351.31
2023-03-22T21:26:45.608Z,99354.78
2023-03-22T21:29:12.534Z,99369.13
2023-03-22T21:31:39.558Z,99381.69
2023-03-22T21:34:09.283Z,99386.22
2023-03-22T21:36:36.981Z,99385.34
2023-03-22T21:39:08.339Z,99393.56
2023-03-22T21:41:36.674Z,99386.94
2023-03-22T21:44:06.789Z,99391.69
2023-03-22T21:46:33.437Z,99397.22
2023-03-22T21:49:01.962Z,99401.81
2023-03-22T21:51:29.292Z,99395.06
2023-03-22T21:53:56.874Z,99394.41
2023-03-22T21:56:24.425Z,99393.69
2023-03-22T21:58:52.063Z,99391.25
2023-03-22T22:01:18.697Z,99401.06
2023-03-22T22:03:46.568Z,99395.97
2023-03-22T22:06:13.268Z,99396.09
2023-03-22T22:08:40.465Z,99390.09
2023-03-22T22:11:08.729Z,99392.81
2023-03-22T22:13:36.720Z,99386.78
2023-03-22T22:16:06.507Z,99388.63
2023-03-22T22:18:35.661Z,99398.34
2023-03-22T22:21:07.236Z,99396.66
2023-03-22T22:23:37.189Z,99397.56
2023-03-22T22:28:46.769Z,99402.84
2023-03-22T22:31:18.712Z,99400.19
2023-03-22T22:33:45.678Z,99392.34
2023-03-22T22:36:12.356Z,99399.34
2023-03-22T22:38:40.606Z,99399.31
2023-03-22T22:41:09.900Z,99397.59
2023-03-22T22:43:36.954Z,99397.59
2023-03-22T22:46:04.140Z,99404.59
2023-03-22T22:48:31.398Z,99402.84
2023-03-22T22:51:07.450Z,99406.34
2023-03-22T22:53:35.439Z,99401.13
2023-03-22T22:56:04.284Z,99400.25
2023-03-22T22:58:31.324Z,99403.78
2023-03-22T23:00:57.951Z,99407.34
2023-03-22T23:03:28.889Z,99391.56
2023-03-22T23:05:56.796Z,99396.78
2023-03-22T23:08:24.472Z,99395.91
2023-03-22T23:10:52.598Z,99395.84
2023-03-22T23:13:23.417Z,99397.69
2023-03-22T23:15:52.794Z,99405.56
2023-03-22T23:18:26.289Z,99392.44
2023-03-22T23:20:53.494Z,99394.16
2023-03-22T23:23:21.973Z,99391.53
2023-03-22T23:25:51.773Z,99389.84
2023-03-22T23:28:22.768Z,99385.50
2023-03-22T23:30:49.848Z,99387.31
2023-03-22T23:33:16.847Z,99393.50
2023-03-22T23:35:44.080Z,99392.63
2023-03-22T23:38:11.105Z,99383.03
2023-03-22T23:40:37.804Z,99390.94
2023-03-22T23:43:04.963Z,99389.19
2023-03-22T23:45:31.691Z,99386.53
2023-03-22T23:47:58.587Z,99392.63
2023-03-22T23:50:25.217Z,99398.69
2023-03-22T23:52:51.945Z,99387.31
2023-03-22T23:55:18.602Z,99394.25
2023-03-22T23:57:47.544Z,99386.34
